Time;durP1;ratioP1;P1;durP2;ratioP2;P2;SDS_P1;SDS_P2;PMS_P1;PMS_P2;Temp;Humidity;BMP_temperature;BMP_pressure;BME280_temperature;BME280_humidity;BME280_pressure;Samples;Min_cycle;Max_cycle;Signal;HPM_P1;HPM_P2
2021/10/04 00:02:19;;;;;;;;;;;;;;;17.01;59.85;98079.80;1633331;87;21948;-87
2021/10/04 00:04:45;;;;;;;;;;;;;;;17.02;59.85;98082.80;1627931;87;20917;-88
2021/10/04 00:07:11;;;;;;;;;;;;;;;16.99;59.84;98083.09;1621875;87;20277;-86
2021/10/04 00:09:39;;;;;;;;;;;;;;;16.99;59.83;98086.56;1626680;87;20182;-86
2021/10/04 00:12:06;;;;;;;;;;;;;;;16.98;59.81;98090.19;1621189;87;24816;-88
2021/10/04 00:14:32;;;;;;;;;;;;;;;16.99;59.78;98087.05;1622175;87;22065;-83
2021/10/04 00:17:01;;;;;;;;;;;;;;;17.01;59.79;98081.96;1624184;87;26032;-84
2021/10/04 00:19:28;;;;;;;;;;;;;;;17.00;59.76;98092.19;1627309;85;24494;-88
2021/10/04 00:21:54;;;;;;;;;;;;;;;16.99;59.75;98093.66;1632541;87;20278;-83
2021/10/04 00:24:20;;;;;;;;;;;;;;;16.97;59.74;98089.84;1623000;86;20273;-88
2021/10/04 00:26:48;;;;;;;;;;;;;;;16.96;59.76;98100.11;1624627;87;20238;-88
2021/10/04 00:29:13;;;;;;;;;;;;;;;16.98;59.80;98095.47;1628887;87;26739;-86
2021/10/04 00:31:39;;;;;;;;;;;;;;;16.96;59.83;98096.14;1621904;87;20958;-83
2021/10/04 00:34:05;;;;;;;;;;;;;;;16.90;59.84;98096.76;1620889;87;20645;-83
2021/10/04 00:36:31;;;;;;;;;;;;;;;16.84;59.84;98100.02;1627548;87;20358;-84
2021/10/04 00:38:57;;;;;;;;;;;;;;;16.81;59.90;98092.38;1629262;87;20258;-84
2021/10/04 00:41:23;;;;;;;;;;;;;;;16.82;59.96;98095.85;1631229;87;21692;-86
2021/10/04 00:43:49;;;;;;;;;;;;;;;16.78;60.01;98094.02;1622092;87;20274;-88
2021/10/04 00:46:15;;;;;;;;;;;;;;;16.79;60.05;98091.72;1625839;87;20293;-86
2021/10/04 00:48:41;;;;;;;;;;;;;;;16.75;60.10;98092.19;1625258;87;24712;-88
2021/10/04 00:51:08;;;;;;;;;;;;;;;16.66;60.16;98086.83;1620705;87;21935;-86
2021/10/04 00:53:34;;;;;;;;;;;;;;;16.55;60.21;98088.36;1625023;87;20394;-83
2021/10/04 00:55:59;;;;;;;;;;;;;;;16.44;60.24;98083.80;1621271;87;20286;-88
2021/10/04 00:58:26;;;;;;;;;;;;;;;16.38;60.30;98090.52;1633248;87;20326;-83
2021/10/04 01:00:52;;;;;;;;;;;;;;;16.37;60.38;98084.89;1624840;87;24928;-86
2021/10/04 01:03:18;;;;;;;;;;;;;;;16.30;60.43;98086.02;1621438;87;20282;-84
2021/10/04 01:05:44;;;;;;;;;;;;;;;16.23;60.49;98083.62;1627568;87;20994;-83
2021/10/04 01:08:10;;;;;;;;;;;;;;;16.19;60.55;98090.69;1622802;87;21071;-83
2021/10/04 01:10:37;;;;;;;;;;;;;;;16.14;60.61;98084.55;1631742;87;20266;-87
2021/10/04 01:13:04;;;;;;;;;;;;;;;16.12;60.67;98085.17;1602498;87;20526;-88
2021/10/04 01:15:31;;;;;;;;;;;;;;;16.14;60.77;98088.50;1621728;87;22144;-88
2021/10/04 01:17:57;;;;;;;;;;;;;;;16.09;60.84;98085.45;1623813;87;26073;-82
2021/10/04 01:20:24;;;;;;;;;;;;;;;16.04;60.92;98082.44;1626938;87;20365;-88
2021/10/04 01:22:51;;;;;;;;;;;;;;;16.01;61.03;98081.92;1628109;87;20500;-83
2021/10/04 01:25:17;;;;;;;;;;;;;;;16.00;61.09;98083.72;1629097;86;24716;-86
2021/10/04 01:27:46;;;;;;;;;;;;;;;16.04;61.17;98087.72;1629102;87;22756;-86
2021/10/04 01:30:16;;;;;;;;;;;;;;;16.07;61.22;98076.05;1633899;87;25782;-85
2021/10/04 01:32:43;;;;;;;;;;;;;;;16.08;61.30;98077.70;1631094;87;24464;-84
2021/10/04 01:35:09;;;;;;;;;;;;;;;16.11;61.36;98074.75;1625224;87;20231;-87
2021/10/04 01:37:35;;;;;;;;;;;;;;;16.10;61.40;98077.88;1625894;87;24675;-87
2021/10/04 01:40:02;;;;;;;;;;;;;;;16.09;61.44;98076.73;1626885;87;20273;-87
2021/10/04 01:42:28;;;;;;;;;;;;;;;16.07;61.46;98080.00;1627070;87;26052;-88
2021/10/04 01:44:54;;;;;;;;;;;;;;;16.08;61.54;98084.31;1635044;87;24389;-86
2021/10/04 01:47:20;;;;;;;;;;;;;;;16.09;61.60;98082.81;1630424;87;20220;-83
2021/10/04 01:49:46;;;;;;;;;;;;;;;16.13;61.64;98081.56;1631155;87;25398;-87
2021/10/04 01:52:13;;;;;;;;;;;;;;;16.13;61.69;98080.23;1622075;87;22067;-87
2021/10/04 01:54:40;;;;;;;;;;;;;;;16.14;61.74;98076.62;1628926;87;26000;-83
2021/10/04 01:57:06;;;;;;;;;;;;;;;16.16;61.77;98082.56;1622540;87;24619;-83
2021/10/04 01:59:32;;;;;;;;;;;;;;;16.15;61.79;98076.94;1619184;87;20256;-86
2021/10/04 02:01:58;;;;;;;;;;;;;;;16.20;61.83;98080.47;1629147;87;24983;-87
2021/10/04 02:04:24;;;;;;;;;;;;;;;16.23;61.82;98078.84;1623653;87;21933;-84
2021/10/04 02:06:51;;;;;;;;;;;;;;;16.24;61.85;98087.94;1624294;87;21058;-86
2021/10/04 02:09:18;;;;;;;;;;;;;;;16.26;61.88;98093.88;1631841;87;24462;-86
2021/10/04 02:11:44;;;;;;;;;;;;;;;16.29;61.89;98092.27;1630630;87;20242;-87
2021/10/04 02:14:10;;;;;;;;;;;;;;;16.31;61.88;98092.93;1635067;87;24901;-83
2021/10/04 02:16:36;;;;;;;;;;;;;;;16.33;61.89;98096.27;1628693;87;22089;-83
2021/10/04 02:19:02;;;;;;;;;;;;;;;16.36;61.87;98102.23;1629464;87;21670;-82
2021/10/04 02:21:28;;;;;;;;;;;;;;;16.40;61.92;98106.22;1639947;87;24647;-83
2021/10/04 02:23:54;;;;;;;;;;;;;;;16.42;61.96;98109.03;1625726;87;20360;-83
2021/10/04 02:26:21;;;;;;;;;;;;;;;16.39;61.98;98108.03;1631662;86;24844;-85
2021/10/04 02:28:47;;;;;;;;;;;;;;;16.37;62.00;98113.11;1632131;87;20227;-87
2021/10/04 02:31:13;;;;;;;;;;;;;;;16.36;62.03;98114.95;1629524;87;21061;-87
2021/10/04 02:33:39;;;;;;;;;;;;;;;16.29;62.03;98125.77;1625620;87;20286;-83
2021/10/04 02:36:05;;;;;;;;;;;;;;;16.29;62.08;98122.64;1636773;87;20891;-86
2021/10/04 02:38:31;;;;;;;;;;;;;;;16.32;62.12;98128.09;1636480;87;24960;-84
2021/10/04 02:40:57;;;;;;;;;;;;;;;16.36;62.19;98130.80;1631898;87;20258;-83
2021/10/04 02:43:23;;;;;;;;;;;;;;;16.37;62.25;98132.92;1631010;87;21006;-83
2021/10/04 02:45:50;;;;;;;;;;;;;;;16.39;62.32;98133.61;1627763;87;24530;-86
2021/10/04 02:48:16;;;;;;;;;;;;;;;16.36;62.35;98133.44;1630702;87;20944;-85
2021/10/04 02:50:43;;;;;;;;;;;;;;;16.35;62.35;98126.49;1631573;87;24870;-87
2021/10/04 02:53:09;;;;;;;;;;;;;;;16.35;62.36;98124.34;1625021;87;21967;-86
2021/10/04 02:55:35;;;;;;;;;;;;;;;16.33;62.42;98121.84;1624986;87;20992;-83
2021/10/04 02:58:00;;;;;;;;;;;;;;;16.32;62.41;98124.13;1626400;87;20398;-85
2021/10/04 03:00:26;;;;;;;;;;;;;;;16.25;62.44;98122.61;1633171;87;20270;-82
2021/10/04 03:02:53;;;;;;;;;;;;;;;16.16;62.42;98129.25;1624901;87;24696;-83
2021/10/04 03:05:19;;;;;;;;;;;;;;;16.08;62.46;98126.06;1629568;85;20275;-87
2021/10/04 03:07:45;;;;;;;;;;;;;;;15.92;62.47;98121.92;1632325;87;20470;-87
2021/10/04 03:10:11;;;;;;;;;;;;;;;15.82;62.52;98133.00;1628171;87;20859;-87
2021/10/04 03:12:37;;;;;;;;;;;;;;;15.76;62.59;98127.02;1634039;87;20322;-83
2021/10/04 03:15:04;;;;;;;;;;;;;;;15.68;62.64;98126.91;1631752;87;20266;-83
2021/10/04 03:17:29;;;;;;;;;;;;;;;15.64;62.72;98131.66;1637667;87;22013;-83
2021/10/04 03:19:55;;;;;;;;;;;;;;;15.62;62.78;98134.91;1632898;87;21734;-83
2021/10/04 03:22:22;;;;;;;;;;;;;;;15.64;62.88;98136.09;1620825;87;20272;-86
2021/10/04 03:24:51;;;;;;;;;;;;;;;15.56;62.96;98134.66;1629242;87;20514;-88
2021/10/04 03:27:17;;;;;;;;;;;;;;;15.53;63.05;98134.48;1628571;85;24746;-86
2021/10/04 03:29:44;;;;;;;;;;;;;;;15.48;63.16;98130.93;1625824;87;22016;-85
2021/10/04 03:32:09;;;;;;;;;;;;;;;15.44;63.27;98137.45;1627605;87;20855;-83
2021/10/04 03:34:36;;;;;;;;;;;;;;;15.44;63.38;98138.77;1620234;87;20297;-83
2021/10/04 03:37:04;;;;;;;;;;;;;;;15.47;63.48;98133.22;1627228;87;20507;-87
2021/10/04 03:39:30;;;;;;;;;;;;;;;15.47;63.57;98135.86;1629630;87;24944;-83
2021/10/04 03:41:56;;;;;;;;;;;;;;;15.49;63.63;98137.84;1623102;87;20265;-86
2021/10/04 03:44:22;;;;;;;;;;;;;;;15.47;63.70;98137.17;1634529;87;26006;-84
2021/10/04 03:46:48;;;;;;;;;;;;;;;15.44;63.77;98134.81;1633436;87;25373;-82
2021/10/04 03:49:14;;;;;;;;;;;;;;;15.44;63.83;98140.57;1629857;87;20840;-83
2021/10/04 03:51:40;;;;;;;;;;;;;;;15.48;63.92;98138.84;1633858;87;24901;-84
2021/10/04 03:54:12;;;;;;;;;;;;;;;15.52;63.98;98142.05;1622380;87;20313;-83
2021/10/04 03:56:38;;;;;;;;;;;;;;;15.56;64.04;98142.09;1632251;87;25989;-86
2021/10/04 03:59:04;;;;;;;;;;;;;;;15.57;64.09;98141.60;1628523;87;20246;-86
2021/10/04 04:01:30;;;;;;;;;;;;;;;15.54;64.18;98148.50;1628253;87;20301;-86
2021/10/04 04:03:56;;;;;;;;;;;;;;;15.47;64.24;98143.77;1625595;87;24630;-87
2021/10/04 04:06:22;;;;;;;;;;;;;;;15.49;64.29;98141.00;1627558;87;20309;-83
2021/10/04 04:08:48;;;;;;;;;;;;;;;15.53;64.36;98137.60;1636873;87;20921;-83
2021/10/04 04:11:14;;;;;;;;;;;;;;;15.55;64.45;98135.14;1627146;87;24434;-83
2021/10/04 04:13:40;;;;;;;;;;;;;;;15.52;64.51;98134.61;1605097;87;20265;-83
2021/10/04 04:16:06;;;;;;;;;;;;;;;15.46;64.55;98137.31;1634526;87;24925;-85
2021/10/04 04:18:32;;;;;;;;;;;;;;;15.44;64.61;98138.77;1624906;87;21994;-87
2021/10/04 04:20:59;;;;;;;;;;;;;;;15.47;64.68;98135.02;1622600;87;21020;-82
2021/10/04 04:23:25;;;;;;;;;;;;;;;15.42;64.76;98128.87;1626837;87;24486;-83
2021/10/04 04:25:51;;;;;;;;;;;;;;;15.41;64.82;98137.75;1636167;86;20440;-87
2021/10/04 04:28:17;;;;;;;;;;;;;;;15.42;64.90;98135.95;1639162;86;20761;-87
2021/10/04 04:30:42;;;;;;;;;;;;;;;15.42;64.95;98136.78;1635978;86;20288;-88
2021/10/04 04:33:09;;;;;;;;;;;;;;;15.38;65.03;98138.02;1624223;86;26573;-83
2021/10/04 04:35:35;;;;;;;;;;;;;;;15.36;65.07;98143.11;1634377;86;20855;-83
2021/10/04 04:38:01;;;;;;;;;;;;;;;15.34;65.16;98143.25;1639133;86;20256;-87
2021/10/04 04:40:27;;;;;;;;;;;;;;;15.33;65.23;98142.06;1638767;86;20290;-83
2021/10/04 04:42:52;;;;;;;;;;;;;;;15.28;65.27;98142.50;1633327;86;20825;-82
2021/10/04 04:45:20;;;;;;;;;;;;;;;15.25;65.32;98149.39;1636536;85;20967;-83
2021/10/04 04:47:47;;;;;;;;;;;;;;;15.22;65.39;98148.34;1640698;86;24456;-83
2021/10/04 04:50:14;;;;;;;;;;;;;;;15.22;65.44;98147.02;1642267;85;20167;-83
2021/10/04 04:52:42;;;;;;;;;;;;;;;15.22;65.52;98148.86;1628800;86;24247;-86
2021/10/04 04:55:08;;;;;;;;;;;;;;;15.22;65.61;98154.13;1642674;85;22152;-86
2021/10/04 04:57:34;;;;;;;;;;;;;;;15.20;65.67;98155.58;1633006;86;26053;-86
2021/10/04 05:00:01;;;;;;;;;;;;;;;15.22;65.75;98154.94;1630330;86;24595;-86
2021/10/04 05:02:27;;;;;;;;;;;;;;;15.16;65.81;98155.53;1635921;86;20263;-86
2021/10/04 05:04:54;;;;;;;;;;;;;;;15.18;65.88;98162.79;1638724;86;24838;-86
2021/10/04 05:07:20;;;;;;;;;;;;;;;15.15;65.95;98161.77;1632909;86;21933;-87
2021/10/04 05:09:46;;;;;;;;;;;;;;;15.14;66.03;98169.81;1632856;86;20973;-87
2021/10/04 05:12:11;;;;;;;;;;;;;;;15.12;66.10;98172.58;1636284;86;20300;-87
2021/10/04 05:14:37;;;;;;;;;;;;;;;15.10;66.17;98171.91;1635302;86;20257;-85
2021/10/04 05:17:03;;;;;;;;;;;;;;;15.11;66.24;98175.38;1647048;86;21051;-82
2021/10/04 05:19:29;;;;;;;;;;;;;;;15.11;66.33;98182.77;1633432;86;22653;-88
2021/10/04 05:21:56;;;;;;;;;;;;;;;15.07;66.39;98196.73;1634809;86;26768;-87
2021/10/04 05:24:22;;;;;;;;;;;;;;;14.99;66.44;98195.30;1630369;86;20895;-86
2021/10/04 05:26:49;;;;;;;;;;;;;;;14.94;66.44;98204.59;1633107;85;20181;-86
2021/10/04 05:29:15;;;;;;;;;;;;;;;14.91;66.49;98202.23;1608126;87;24739;-85
2021/10/04 05:31:41;;;;;;;;;;;;;;;14.87;66.52;98210.91;1625018;87;20262;-86
2021/10/04 05:34:07;;;;;;;;;;;;;;;14.87;66.60;98212.70;1627510;87;26191;-86
2021/10/04 05:36:33;;;;;;;;;;;;;;;14.92;66.67;98214.44;1628645;87;20453;-86
2021/10/04 05:39:00;;;;;;;;;;;;;;;14.95;66.74;98212.34;1626635;87;20346;-87
2021/10/04 05:41:26;;;;;;;;;;;;;;;14.95;66.82;98216.30;1623091;87;25599;-86
2021/10/04 05:43:52;;;;;;;;;;;;;;;14.96;66.86;98213.18;1628911;87;20325;-86
2021/10/04 05:46:18;;;;;;;;;;;;;;;15.01;66.94;98210.47;1633359;87;25995;-86
2021/10/04 05:48:45;;;;;;;;;;;;;;;15.04;67.00;98213.33;1625939;87;20261;-85
2021/10/04 05:51:11;;;;;;;;;;;;;;;15.08;67.06;98219.48;1618036;87;20295;-82
2021/10/04 05:53:36;;;;;;;;;;;;;;;15.10;67.11;98218.04;1627386;87;20258;-87
2021/10/04 05:56:03;;;;;;;;;;;;;;;15.17;67.19;98223.07;1625372;87;20246;-87
2021/10/04 05:58:29;;;;;;;;;;;;;;;15.23;67.25;98221.19;1627366;87;26036;-83
2021/10/04 06:00:55;;;;;;;;;;;;;;;15.27;67.30;98221.28;1619596;87;25132;-87
2021/10/04 06:03:21;;;;;;;;;;;;;;;15.28;67.36;98230.83;1620962;87;20494;-86
2021/10/04 06:05:47;;;;;;;;;;;;;;;15.25;67.42;98232.44;1629603;87;24735;-86
2021/10/04 06:08:13;;;;;;;;;;;;;;;15.28;67.50;98233.46;1620697;87;20251;-83
2021/10/04 06:10:39;;;;;;;;;;;;;;;15.31;67.57;98238.95;1615634;87;26063;-82
2021/10/04 06:13:05;;;;;;;;;;;;;;;15.32;67.66;98243.26;1624828;87;20296;-82
2021/10/04 06:15:31;;;;;;;;;;;;;;;15.38;67.76;98246.66;1621606;87;20270;-86
2021/10/04 06:17:57;;;;;;;;;;;;;;;15.44;67.84;98248.69;1632043;87;24225;-83
2021/10/04 06:20:24;;;;;;;;;;;;;;;15.45;67.92;98241.13;1631729;87;21972;-87
2021/10/04 06:22:50;;;;;;;;;;;;;;;15.44;68.00;98246.05;1623619;87;25961;-83
2021/10/04 06:25:17;;;;;;;;;;;;;;;15.47;68.06;98245.30;1629264;85;24565;-86
2021/10/04 06:27:44;;;;;;;;;;;;;;;15.50;68.13;98249.45;1624492;85;20262;-83
2021/10/04 06:30:11;;;;;;;;;;;;;;;15.54;68.17;98247.41;1625169;87;24806;-83
2021/10/04 06:32:42;;;;;;;;;;;;;;;15.56;68.28;98253.36;1630774;85;21941;-87
2021/10/04 06:35:09;;;;;;;;;;;;;;;15.59;68.38;98250.45;1637588;87;25961;-86
2021/10/04 06:37:35;;;;;;;;;;;;;;;15.66;68.43;98257.63;1636838;87;24467;-86
2021/10/04 06:40:00;;;;;;;;;;;;;;;15.72;68.50;98260.19;1604264;87;20270;-83
2021/10/04 06:42:27;;;;;;;;;;;;;;;15.78;68.58;98260.94;1630923;87;25373;-84
2021/10/04 06:44:56;;;;;;;;;;;;;;;15.84;68.66;98265.16;1624580;87;20225;-82
2021/10/04 06:47:23;;;;;;;;;;;;;;;15.84;68.64;98268.28;1632141;87;26077;-86
2021/10/04 06:49:49;;;;;;;;;;;;;;;15.78;68.64;98274.12;1629496;87;25167;-83
2021/10/04 06:52:15;;;;;;;;;;;;;;;15.80;68.71;98273.51;1625617;87;20230;-83
2021/10/04 06:54:41;;;;;;;;;;;;;;;15.87;68.80;98278.05;1623838;87;20253;-84
2021/10/04 06:57:07;;;;;;;;;;;;;;;15.90;68.79;98282.22;1610010;87;20318;-87
2021/10/04 06:59:34;;;;;;;;;;;;;;;15.98;68.83;98286.30;1630599;87;21042;-83
2021/10/04 07:02:00;;;;;;;;;;;;;;;16.06;68.87;98293.00;1623077;87;24450;-84
2021/10/04 07:04:26;;;;;;;;;;;;;;;16.12;68.88;98291.59;1631410;87;20286;-83
2021/10/04 07:06:52;;;;;;;;;;;;;;;16.23;68.93;98292.23;1625680;87;20766;-83
2021/10/04 07:09:18;;;;;;;;;;;;;;;16.32;68.99;98295.30;1635075;87;22076;-88
2021/10/04 07:11:44;;;;;;;;;;;;;;;16.41;69.05;98290.14;1630897;87;26069;-88
2021/10/04 07:14:11;;;;;;;;;;;;;;;16.51;69.10;98293.06;1636502;87;24501;-87
2021/10/04 07:16:36;;;;;;;;;;;;;;;16.58;69.15;98294.12;1630174;87;20839;-87
2021/10/04 07:19:03;;;;;;;;;;;;;;;16.68;69.19;98300.72;1634475;87;20211;-83
2021/10/04 07:21:30;;;;;;;;;;;;;;;16.76;69.25;98298.15;1637190;87;22080;-87
2021/10/04 07:24:00;;;;;;;;;;;;;;;16.79;69.28;98301.83;1638110;87;26084;-83
2021/10/04 07:26:24;;;;;;;;;;;;;;;16.76;69.24;98303.44;1630400;86;24481;-84
2021/10/04 07:28:50;;;;;;;;;;;;;;;16.82;69.27;98304.16;1636236;86;20249;-83
2021/10/04 07:31:17;;;;;;;;;;;;;;;16.89;69.29;98305.23;1628778;86;24965;-83
2021/10/04 07:33:44;;;;;;;;;;;;;;;17.00;69.36;98305.51;1627300;86;21989;-86
2021/10/04 07:36:10;;;;;;;;;;;;;;;17.05;69.38;98307.20;1626683;86;25997;-84
2021/10/04 07:38:37;;;;;;;;;;;;;;;17.11;69.35;98299.51;1629741;86;25339;-82
2021/10/04 07:41:07;;;;;;;;;;;;;;;17.13;69.33;98301.49;1630940;86;20212;-83
2021/10/04 07:43:33;;;;;;;;;;;;;;;17.11;69.28;98307.44;1632638;86;24772;-86
2021/10/04 07:46:04;;;;;;;;;;;;;;;17.12;69.28;98307.79;1627977;86;37469;-87
2021/10/04 07:48:30;;;;;;;;;;;;;;;17.18;69.30;98305.52;1636481;86;26092;-84
2021/10/04 07:50:55;;;;;;;;;;;;;;;17.25;69.30;98301.27;1633337;86;24540;-84
2021/10/04 07:53:21;;;;;;;;;;;;;;;17.30;69.36;98304.28;1642368;86;20270;-84
2021/10/04 07:55:47;;;;;;;;;;;;;;;17.32;69.39;98306.30;1633058;86;20289;-83
2021/10/04 07:58:13;;;;;;;;;;;;;;;17.38;69.38;98304.36;1640813;86;20338;-85
2021/10/04 08:00:39;;;;;;;;;;;;;;;17.41;69.36;98302.72;1630092;85;21082;-83
2021/10/04 08:03:08;;;;;;;;;;;;;;;17.47;69.36;98304.76;1626270;86;24656;-86
2021/10/04 08:05:34;;;;;;;;;;;;;;;17.51;69.35;98304.29;1628058;86;20225;-83
2021/10/04 08:08:01;;;;;;;;;;;;;;;17.56;69.35;98307.30;1634424;86;25529;-86
2021/10/04 08:10:30;;;;;;;;;;;;;;;17.61;69.34;98306.90;1636367;86;22031;-84
2021/10/04 08:12:55;;;;;;;;;;;;;;;17.67;69.29;98312.91;1626528;86;26069;-84
2021/10/04 08:15:21;;;;;;;;;;;;;;;17.73;69.29;98304.84;1597391;86;20281;-86
2021/10/04 08:17:48;;;;;;;;;;;;;;;17.75;69.27;98302.35;1630768;86;20887;-87
2021/10/04 08:20:14;;;;;;;;;;;;;;;17.73;69.22;98297.70;1634694;86;24879;-87
2021/10/04 08:22:40;;;;;;;;;;;;;;;17.81;69.22;98301.73;1636890;86;22021;-87
2021/10/04 08:25:08;;;;;;;;;;;;;;;17.91;69.27;98305.10;1633574;86;26131;-83
2021/10/04 08:27:34;;;;;;;;;;;;;;;18.00;69.30;98298.05;1635073;86;24601;-84
2021/10/04 08:30:01;;;;;;;;;;;;;;;18.03;69.28;98299.55;1628396;86;20203;-84
2021/10/04 08:32:27;;;;;;;;;;;;;;;18.10;69.29;98304.56;1635495;86;24917;-83
2021/10/04 08:34:53;;;;;;;;;;;;;;;18.08;69.23;98304.70;1636915;86;21947;-87
2021/10/04 08:37:19;;;;;;;;;;;;;;;18.12;69.25;98299.91;1634781;85;26123;-87
2021/10/04 08:39:47;;;;;;;;;;;;;;;18.17;69.23;98298.45;1635268;86;20911;-84
2021/10/04 08:42:13;;;;;;;;;;;;;;;18.21;69.21;98300.31;1632327;86;20175;-88
2021/10/04 08:44:41;;;;;;;;;;;;;;;18.24;69.21;98300.81;1631097;86;25454;-87
2021/10/04 08:47:07;;;;;;;;;;;;;;;18.31;69.20;98302.34;1637501;86;22058;-88
2021/10/04 08:49:34;;;;;;;;;;;;;;;18.34;69.15;98302.02;1641197;86;26060;-83
2021/10/04 08:52:01;;;;;;;;;;;;;;;18.39;69.13;98303.69;1630585;86;23939;-85
2021/10/04 08:54:29;;;;;;;;;;;;;;;18.47;69.15;98305.06;1627645;86;20298;-86
2021/10/04 08:56:56;;;;;;;;;;;;;;;18.53;69.12;98305.75;1639922;85;24756;-87
2021/10/04 08:59:22;;;;;;;;;;;;;;;18.55;69.09;98305.10;1637154;86;22195;-88
2021/10/04 09:01:52;;;;;;;;;;;;;;;18.53;69.01;98305.75;1632976;86;21210;-83
2021/10/04 09:04:20;;;;;;;;;;;;;;;18.55;68.91;98298.48;1648503;85;24523;-83
2021/10/04 09:06:46;;;;;;;;;;;;;;;18.56;68.83;98306.77;1635004;86;20571;-84
2021/10/04 09:09:16;;;;;;;;;;;;;;;18.61;68.79;98305.80;1633440;86;24794;-87
2021/10/04 09:11:46;;;;;;;;;;;;;;;18.63;68.69;98302.50;1638262;86;22098;-87
2021/10/04 09:14:16;;;;;;;;;;;;;;;18.69;68.64;98304.51;1632382;86;26069;-83
2021/10/04 09:16:59;;;;;;;;;;;;;;;18.78;68.60;98306.18;1645853;85;24664;-83
2021/10/04 09:19:30;;;;;;;;;;;;;;;18.89;68.55;98309.52;1652913;86;20413;-88
2021/10/04 09:22:04;;;;;;;;;;;;;;;18.97;68.58;98306.41;1637321;85;24798;-83
2021/10/04 09:24:30;;;;;;;;;;;;;;;19.01;68.53;98310.88;1638775;85;21981;-83
2021/10/04 09:26:56;;;;;;;;;;;;;;;19.03;68.49;98311.06;1623309;86;20505;-84
2021/10/04 09:29:24;;;;;;;;;;;;;;;19.05;68.39;98308.22;1641667;86;24734;-88
2021/10/04 09:31:55;;;;;;;;;;;;;;;19.08;68.29;98306.09;1638695;86;20468;-84
2021/10/04 09:34:23;;;;;;;;;;;;;;;19.12;68.21;98297.30;1637696;86;24961;-86
2021/10/04 09:36:51;;;;;;;;;;;;;;;19.12;68.06;98301.27;1634675;86;22037;-86
2021/10/04 09:39:24;;;;;;;;;;;;;;;19.15;68.04;98297.78;1635309;86;25963;-84
2021/10/04 09:42:01;;;;;;;;;;;;;;;19.21;68.01;98294.97;1633493;85;25284;-84
2021/10/04 09:44:29;;;;;;;;;;;;;;;19.28;67.94;98292.00;1635930;86;20230;-84
2021/10/04 09:47:09;;;;;;;;;;;;;;;19.36;67.89;98296.49;1629671;86;24811;-88
2021/10/04 09:49:55;;;;;;;;;;;;;;;19.43;67.83;98294.81;1635101;86;21917;-85
2021/10/04 09:52:22;;;;;;;;;;;;;;;19.43;67.71;98292.98;1629992;87;26180;-88
2021/10/04 09:54:48;;;;;;;;;;;;;;;19.48;67.68;98289.86;1633493;86;24425;-83
2021/10/04 09:57:19;;;;;;;;;;;;;;;19.58;67.67;98295.33;1626045;86;20580;-84
2021/10/04 09:59:45;;;;;;;;;;;;;;;19.65;67.65;98284.88;1609405;86;24705;-83
2021/10/04 10:02:13;;;;;;;;;;;;;;;19.72;67.61;98288.53;1632379;86;21953;-86
2021/10/04 10:04:44;;;;;;;;;;;;;;;19.69;67.48;98280.91;1631505;86;26061;-84
2021/10/04 10:07:10;;;;;;;;;;;;;;;19.72;67.41;98286.37;1610368;86;24368;-83
2021/10/04 10:09:38;;;;;;;;;;;;;;;19.79;67.37;98281.55;1632217;86;20302;-86
2021/10/04 10:12:05;;;;;;;;;;;;;;;19.80;67.26;98282.39;1634297;86;24325;-86
2021/10/04 10:14:38;;;;;;;;;;;;;;;19.84;67.18;98280.55;1632283;86;21914;-83
2021/10/04 10:17:05;;;;;;;;;;;;;;;19.92;67.17;98275.70;1632976;86;26214;-86
2021/10/04 10:19:33;;;;;;;;;;;;;;;19.96;67.07;98281.02;1607753;86;24427;-83
2021/10/04 10:22:12;;;;;;;;;;;;;;;19.98;67.03;98273.69;1637151;86;20314;-88
2021/10/04 10:24:39;;;;;;;;;;;;;;;19.99;66.93;98276.19;1633272;86;24926;-85
2021/10/04 10:27:05;;;;;;;;;;;;;;;20.05;66.83;98279.99;1638386;86;22972;-87
2021/10/04 10:29:32;;;;;;;;;;;;;;;20.14;66.77;98272.81;1632361;85;26767;-84
2021/10/04 10:32:00;;;;;;;;;;;;;;;20.20;66.73;98268.14;1630715;87;25346;-88
2021/10/04 10:34:31;;;;;;;;;;;;;;;20.24;66.66;98266.30;1624152;87;20326;-85
2021/10/04 10:37:02;;;;;;;;;;;;;;;20.24;66.51;98266.79;1629052;87;24792;-88
2021/10/04 10:39:32;;;;;;;;;;;;;;;20.28;66.44;98265.47;1635917;87;22655;-88
2021/10/04 10:42:15;;;;;;;;;;;;;;;20.35;66.34;98270.44;1627263;87;26068;-84
2021/10/04 10:45:10;;;;;;;;;;;;;;;20.43;66.29;98263.77;1633462;87;24407;-84
2021/10/04 10:47:41;;;;;;;;;;;;;;;20.52;66.28;98269.86;1630238;87;20238;-84
2021/10/04 10:50:12;;;;;;;;;;;;;;;20.58;66.16;98273.16;1626109;87;24746;-83
2021/10/04 10:52:40;;;;;;;;;;;;;;;20.60;66.00;98273.83;1622932;87;22033;-83
2021/10/04 10:55:20;;;;;;;;;;;;;;;20.57;65.83;98264.84;1630265;87;26057;-88
2021/10/04 10:57:47;;;;;;;;;;;;;;;20.61;65.76;98263.52;1618770;87;25579;-85
2021/10/04 11:00:18;;;;;;;;;;;;;;;20.69;65.71;98263.46;1596665;87;20238;-88
2021/10/04 11:02:55;;;;;;;;;;;;;;;20.76;65.75;98266.59;1622103;86;24763;-88
2021/10/04 11:05:41;;;;;;;;;;;;;;;20.83;65.69;98259.57;1628557;87;22060;-85
2021/10/04 11:08:08;;;;;;;;;;;;;;;20.88;65.54;98266.52;1622909;87;25954;-88
2021/10/04 11:10:35;;;;;;;;;;;;;;;20.96;65.45;98262.95;1623155;87;24503;-84
2021/10/04 11:13:09;;;;;;;;;;;;;;;21.01;65.36;98269.91;1620970;87;20233;-86
2021/10/04 11:15:37;;;;;;;;;;;;;;;21.04;65.32;98266.91;1598200;87;24828;-83
2021/10/04 11:18:03;;;;;;;;;;;;;;;21.12;65.33;98265.50;1618853;86;22255;-88
2021/10/04 11:20:29;;;;;;;;;;;;;;;21.20;65.24;98264.66;1620287;86;26670;-85
2021/10/04 11:23:03;;;;;;;;;;;;;;;21.23;65.08;98267.77;1621227;86;24503;-86
2021/10/04 11:25:32;;;;;;;;;;;;;;;21.26;64.92;98264.77;1621496;86;20213;-88
2021/10/04 11:27:58;;;;;;;;;;;;;;;21.31;64.83;98263.41;1622315;84;24764;-88
2021/10/04 11:30:24;;;;;;;;;;;;;;;21.33;64.72;98262.73;1609441;86;22003;-83
2021/10/04 11:33:06;;;;;;;;;;;;;;;21.36;64.56;98264.52;1609807;86;21107;-84
2021/10/04 11:35:32;;;;;;;;;;;;;;;21.40;64.47;98257.83;1624399;87;24458;-83
2021/10/04 11:38:00;;;;;;;;;;;;;;;21.45;64.33;98262.61;1628320;86;20254;-86
2021/10/04 11:40:26;;;;;;;;;;;;;;;21.50;64.25;98260.23;1625673;86;25469;-83
2021/10/04 11:43:03;;;;;;;;;;;;;;;21.58;64.17;98257.50;1628169;85;20312;-87
2021/10/04 11:45:30;;;;;;;;;;;;;;;21.66;64.13;98253.41;1627977;86;26800;-88
2021/10/04 11:47:56;;;;;;;;;;;;;;;21.77;64.16;98254.30;1631997;86;24466;-84
2021/10/04 11:50:24;;;;;;;;;;;;;;;21.85;64.16;98249.41;1628000;86;20341;-84
2021/10/04 11:52:51;;;;;;;;;;;;;;;21.90;64.03;98247.02;1641684;86;24895;-88
2021/10/04 11:55:17;;;;;;;;;;;;;;;21.95;63.88;98243.33;1646477;86;21983;-87
2021/10/04 11:57:43;;;;;;;;;;;;;;;21.99;63.70;98245.94;1634333;86;25629;-83
2021/10/04 12:00:16;;;;;;;;;;;;;;;21.98;63.47;98243.78;1628226;86;24403;-83
2021/10/04 12:02:45;;;;;;;;;;;;;;;22.02;63.39;98239.76;1641596;86;20231;-88
2021/10/04 12:05:19;;;;;;;;;;;;;;;22.06;63.30;98243.70;1623866;86;24749;-88
2021/10/04 12:08:00;;;;;;;;;;;;;;;22.11;63.25;98239.97;1627776;86;22275;-86
2021/10/04 12:10:43;;;;;;;;;;;;;;;22.10;63.06;98242.31;1626972;86;26173;-84
2021/10/04 12:13:10;;;;;;;;;;;;;;;22.16;62.95;98238.08;1629309;86;25574;-84
2021/10/04 12:15:36;;;;;;;;;;;;;;;22.19;62.73;98238.23;1636283;86;20253;-84
2021/10/04 12:18:02;;;;;;;;;;;;;;;22.20;62.54;98239.89;1628732;86;25446;-85
2021/10/04 12:20:28;;;;;;;;;;;;;;;22.22;62.37;98236.52;1632758;86;20907;-85
2021/10/04 12:22:54;;;;;;;;;;;;;;;22.22;62.22;98241.34;1622788;86;21740;-86
2021/10/04 12:25:28;;;;;;;;;;;;;;;22.25;62.12;98239.66;1629692;86;20242;-86
2021/10/04 12:28:07;;;;;;;;;;;;;;;22.27;62.06;98238.11;1631022;86;20232;-84
2021/10/04 12:30:40;;;;;;;;;;;;;;;22.26;61.94;98242.62;1634350;86;24799;-86
2021/10/04 12:33:06;;;;;;;;;;;;;;;22.30;61.88;98234.59;1630495;86;22025;-88
2021/10/04 12:35:32;;;;;;;;;;;;;;;22.32;61.75;98237.88;1635509;86;21099;-88
2021/10/04 12:38:17;;;;;;;;;;;;;;;22.34;61.66;98235.03;1641304;86;20309;-87
2021/10/04 12:40:47;;;;;;;;;;;;;;;22.36;61.58;98237.02;1638184;86;20233;-86
2021/10/04 12:43:15;;;;;;;;;;;;;;;22.39;61.39;98239.30;1630230;86;24890;-86
2021/10/04 12:45:58;;;;;;;;;;;;;;;22.43;61.30;98236.58;1632343;86;22780;-86
2021/10/04 12:48:26;;;;;;;;;;;;;;;22.44;61.19;98240.90;1630205;86;26183;-85
2021/10/04 12:50:53;;;;;;;;;;;;;;;22.47;61.01;98240.55;1629449;86;25177;-84